Time;durP1;ratioP1;P1;durP2;ratioP2;P2;SDS_P1;SDS_P2;PMS_P1;PMS_P2;Temp;Humidity;BMP_temperature;BMP_pressure;BME280_temperature;BME280_humidity;BME280_pressure;Samples;Min_cycle;Max_cycle;Signal;HPM_P1;HPM_P2
2024/04/13 00:01:54;;;;;;;;;;;;;;;6.16;100.00;99797.97;5374656;26;19946;-88
2024/04/13 00:04:19;;;;;;;;;;;;;;;6.17;100.00;99797.16;5370362;26;19930;-88
2024/04/13 00:06:45;;;;;;;;;;;;;;;6.01;100.00;99794.34;5351025;26;19942;-88
2024/04/13 00:09:10;;;;;;;;;;;;;;;6.02;100.00;99795.28;5316665;26;19938;-87
2024/04/13 00:11:35;;;;;;;;;;;;;;;6.04;100.00;99791.91;5372964;26;20267;-89
2024/04/13 00:14:01;;;;;;;;;;;;;;;6.01;100.00;99788.16;5365598;26;20275;-88
2024/04/13 00:16:26;;;;;;;;;;;;;;;6.17;100.00;99789.19;5399327;26;20174;-88
2024/04/13 00:18:51;;;;;;;;;;;;;;;6.02;100.00;99787.31;5342894;26;20279;-88
2024/04/13 00:21:16;;;;;;;;;;;;;;;6.10;100.00;99784.34;5341875;26;19998;-88
2024/04/13 00:23:42;;;;;;;;;;;;;;;6.04;100.00;99783.97;5340288;26;20010;-88
2024/04/13 00:26:08;;;;;;;;;;;;;;;5.77;100.00;99782.16;5352195;26;19929;-88
2024/04/13 00:28:33;;;;;;;;;;;;;;;5.69;100.00;99776.34;5367244;26;19937;-87
2024/04/13 00:30:59;;;;;;;;;;;;;;;5.61;100.00;99780.25;5370935;26;20294;-89
2024/04/13 00:33:25;;;;;;;;;;;;;;;5.47;100.00;99779.34;5373030;26;19937;-87
2024/04/13 00:35:50;;;;;;;;;;;;;;;5.55;100.00;99778.09;5366431;26;19964;-88
2024/04/13 00:38:16;;;;;;;;;;;;;;;5.65;100.00;99772.59;5396755;26;19937;-87
2024/04/13 00:40:42;;;;;;;;;;;;;;;5.76;100.00;99773.28;5346312;26;19929;-87
2024/04/13 00:43:11;;;;;;;;;;;;;;;5.75;100.00;99768.81;5341885;26;19944;-90
2024/04/13 00:45:46;;;;;;;;;;;;;;;5.57;100.00;99771.19;5375641;26;19929;-88
2024/04/13 00:48:16;;;;;;;;;;;;;;;5.47;100.00;99770.50;5374327;26;20270;-88
2024/04/13 00:50:46;;;;;;;;;;;;;;;5.33;100.00;99766.94;5371177;26;19929;-90
2024/04/13 00:53:13;;;;;;;;;;;;;;;5.34;100.00;99763.47;5312541;26;19930;-91
2024/04/13 00:55:40;;;;;;;;;;;;;;;5.34;100.00;99761.72;5343879;26;20289;-88
2024/04/13 00:58:08;;;;;;;;;;;;;;;5.37;100.00;99761.03;5346076;26;20357;-88
2024/04/13 01:00:34;;;;;;;;;;;;;;;5.34;100.00;99748.50;5384017;26;19934;-89
2024/04/13 01:03:00;;;;;;;;;;;;;;;5.29;100.00;99747.28;5403738;26;20355;-90
2024/04/13 01:05:32;;;;;;;;;;;;;;;5.20;100.00;99751.03;5350132;26;19988;-88
2024/04/13 01:07:58;;;;;;;;;;;;;;;5.17;100.00;99748.19;5373101;26;20271;-88
2024/04/13 01:10:23;;;;;;;;;;;;;;;5.12;100.00;99747.88;5347223;26;19941;-88
2024/04/13 01:12:49;;;;;;;;;;;;;;;5.03;100.00;99740.28;5335084;26;19930;-88
2024/04/13 01:15:16;;;;;;;;;;;;;;;5.20;100.00;99751.97;5367365;26;20377;-88
2024/04/13 01:17:43;;;;;;;;;;;;;;;5.28;100.00;99748.09;5343496;26;20159;-89
2024/04/13 01:20:09;;;;;;;;;;;;;;;5.12;100.00;99746.16;5369473;26;19935;-89
2024/04/13 01:22:38;;;;;;;;;;;;;;;5.18;100.00;99747.41;5365663;26;19940;-91
2024/04/13 01:25:04;;;;;;;;;;;;;;;5.27;100.00;99743.63;5341052;26;19945;-88
2024/04/13 01:27:29;;;;;;;;;;;;;;;5.13;100.00;99745.34;5373670;26;19933;-89
2024/04/13 01:29:55;;;;;;;;;;;;;;;4.98;100.00;99748.69;5307132;26;19936;-89
2024/04/13 01:32:20;;;;;;;;;;;;;;;4.95;100.00;99749.41;5319007;26;19930;-90
2024/04/13 01:34:46;;;;;;;;;;;;;;;5.06;100.00;99755.41;5340211;26;19941;-90
2024/04/13 01:37:12;;;;;;;;;;;;;;;5.06;100.00;99748.38;5334408;26;20040;-88
2024/04/13 01:39:37;;;;;;;;;;;;;;;5.02;100.00;99750.72;5305154;26;20355;-89
2024/04/13 01:42:02;;;;;;;;;;;;;;;4.97;100.00;99753.06;5368920;26;19929;-89
2024/04/13 01:44:28;;;;;;;;;;;;;;;5.01;100.00;99755.09;5343633;26;20383;-88
2024/04/13 01:46:58;;;;;;;;;;;;;;;5.00;100.00;99755.00;5399051;26;19938;-88
2024/04/13 01:49:23;;;;;;;;;;;;;;;5.13;100.00;99760.31;5374225;26;19949;-89
2024/04/13 01:51:48;;;;;;;;;;;;;;;5.00;100.00;99763.84;5350092;26;19933;-89
2024/04/13 01:54:14;;;;;;;;;;;;;;;5.05;100.00;99759.78;5339822;26;19937;-89
2024/04/13 01:56:39;;;;;;;;;;;;;;;4.92;100.00;99757.13;5323334;26;19930;-89
2024/04/13 01:59:05;;;;;;;;;;;;;;;5.12;100.00;99762.00;5346176;26;19941;-89
2024/04/13 02:01:30;;;;;;;;;;;;;;;5.13;100.00;99760.31;5380695;26;19929;-90
2024/04/13 02:03:56;;;;;;;;;;;;;;;5.14;100.00;99762.13;5370634;26;20267;-91
2024/04/13 02:06:21;;;;;;;;;;;;;;;5.07;100.00;99755.50;5372417;26;20284;-89
2024/04/13 02:08:46;;;;;;;;;;;;;;;5.20;100.00;99761.63;5344158;26;19953;-89
2024/04/13 02:11:12;;;;;;;;;;;;;;;5.05;100.00;99753.59;5334128;26;19941;-89
2024/04/13 02:13:37;;;;;;;;;;;;;;;5.08;100.00;99753.81;5365088;26;20442;-88
2024/04/13 02:16:03;;;;;;;;;;;;;;;4.93;100.00;99761.59;5341612;26;20800;-88
2024/04/13 02:18:29;;;;;;;;;;;;;;;4.93;100.00;99764.22;5338745;26;19954;-90
2024/04/13 02:20:57;;;;;;;;;;;;;;;4.79;100.00;99765.03;5385188;26;19937;-92
2024/04/13 02:23:22;;;;;;;;;;;;;;;4.74;100.00;99763.78;5325817;26;19937;-91
2024/04/13 02:25:49;;;;;;;;;;;;;;;4.86;100.00;99762.00;5365381;26;19941;-92
2024/04/13 02:28:15;;;;;;;;;;;;;;;4.81;100.00;99769.63;5362579;26;19937;-90
2024/04/13 02:30:41;;;;;;;;;;;;;;;4.76;100.00;99767.47;5352903;26;20188;-89
2024/04/13 02:33:06;;;;;;;;;;;;;;;4.87;100.00;99763.84;5359039;26;19941;-90
2024/04/13 02:35:32;;;;;;;;;;;;;;;4.92;100.00;99764.16;5389640;26;20126;-90
2024/04/13 02:37:57;;;;;;;;;;;;;;;5.08;100.00;99761.75;5359940;26;19929;-90
2024/04/13 02:40:23;;;;;;;;;;;;;;;4.86;100.00;99767.28;5351792;26;19937;-88
2024/04/13 02:42:52;;;;;;;;;;;;;;;4.84;100.00;99761.91;5341190;26;19930;-90
2024/04/13 02:45:18;;;;;;;;;;;;;;;4.86;100.00;99762.91;5352027;26;19941;-91
2024/04/13 02:47:48;;;;;;;;;;;;;;;4.81;100.00;99752.84;5346245;26;19958;-88
2024/04/13 02:50:15;;;;;;;;;;;;;;;4.89;100.00;99747.28;5365118;26;19938;-89
2024/04/13 02:52:41;;;;;;;;;;;;;;;4.80;100.00;99748.38;5363492;26;19937;-88
2024/04/13 02:55:07;;;;;;;;;;;;;;;4.87;100.00;99742.69;5341876;26;20057;-88
2024/04/13 02:57:32;;;;;;;;;;;;;;;4.89;100.00;99744.63;5376437;26;20284;-87
2024/04/13 02:59:58;;;;;;;;;;;;;;;4.76;100.00;99748.97;5368114;26;19930;-89
2024/04/13 03:02:24;;;;;;;;;;;;;;;4.83;100.00;99757.41;5347939;26;19930;-88
2024/04/13 03:04:53;;;;;;;;;;;;;;;4.90;100.00;99750.81;5400877;26;19948;-89
2024/04/13 03:07:19;;;;;;;;;;;;;;;4.90;100.00;99750.81;5401843;26;19937;-89
2024/04/13 03:09:44;;;;;;;;;;;;;;;4.96;100.00;99750.31;5347463;26;19981;-89
2024/04/13 03:12:10;;;;;;;;;;;;;;;4.97;100.00;99752.16;5369641;26;19936;-89
2024/04/13 03:14:36;;;;;;;;;;;;;;;4.80;100.00;99749.28;5366410;26;19937;-88
2024/04/13 03:17:01;;;;;;;;;;;;;;;4.73;100.00;99756.69;5395260;26;19929;-88
2024/04/13 03:19:27;;;;;;;;;;;;;;;4.67;100.00;99758.91;5319381;26;19930;-87
2024/04/13 03:21:52;;;;;;;;;;;;;;;4.89;100.00;99764.88;5369903;26;19929;-87
2024/04/13 03:24:18;;;;;;;;;;;;;;;5.08;100.00;99752.06;5335745;26;19929;-89
2024/04/13 03:26:43;;;;;;;;;;;;;;;4.97;100.00;99754.78;5364832;26;19958;-87
2024/04/13 03:29:11;;;;;;;;;;;;;;;4.93;100.00;99764.22;5324518;26;20358;-89
2024/04/13 03:31:37;;;;;;;;;;;;;;;4.80;100.00;99767.78;5340916;26;19930;-88
2024/04/13 03:34:04;;;;;;;;;;;;;;;4.61;100.00;99767.34;5368707;26;20354;-88
2024/04/13 03:36:30;;;;;;;;;;;;;;;4.59;100.00;99761.94;5361431;26;19958;-88
2024/04/13 03:38:59;;;;;;;;;;;;;;;4.38;100.00;99764.00;5339009;26;20003;-89
2024/04/13 03:41:25;;;;;;;;;;;;;;;4.63;100.00;99763.97;5364706;26;19937;-87
2024/04/13 03:43:50;;;;;;;;;;;;;;;4.53;100.00;99769.44;5395856;26;19988;-88
2024/04/13 03:46:15;;;;;;;;;;;;;;;4.46;100.00;99768.94;5339711;26;20381;-89
2024/04/13 03:48:43;;;;;;;;;;;;;;;4.53;100.00;99765.88;5364176;26;19929;-88
2024/04/13 03:51:09;;;;;;;;;;;;;;;4.52;100.00;99762.34;5362638;26;19929;-89
2024/04/13 03:53:35;;;;;;;;;;;;;;;4.49;100.00;99766.47;5367826;26;19998;-90
2024/04/13 03:56:01;;;;;;;;;;;;;;;4.46;100.00;99779.50;5368943;26;20339;-89
2024/04/13 03:58:26;;;;;;;;;;;;;;;4.36;100.00;99763.00;5370368;26;19933;-89
2024/04/13 04:00:52;;;;;;;;;;;;;;;4.55;100.00;99752.00;5310454;26;20359;-90
2024/04/13 04:03:17;;;;;;;;;;;;;;;4.51;100.00;99747.28;5339881;26;19945;-90
2024/04/13 04:05:42;;;;;;;;;;;;;;;4.56;100.00;99752.91;5365491;26;19999;-90
2024/04/13 04:08:08;;;;;;;;;;;;;;;4.47;100.00;99758.47;5370990;26;19933;-91
2024/04/13 04:10:33;;;;;;;;;;;;;;;4.42;100.00;99751.94;5346835;26;19937;-90
2024/04/13 04:13:01;;;;;;;;;;;;;;;4.33;100.00;99754.84;5397521;26;19960;-89
2024/04/13 04:15:26;;;;;;;;;;;;;;;4.28;100.00;99760.63;5371283;26;19929;-90
2024/04/13 04:17:51;;;;;;;;;;;;;;;4.25;100.00;99752.47;5339776;26;19937;-90
2024/04/13 04:20:17;;;;;;;;;;;;;;;4.27;100.00;99746.50;5394737;26;19941;-90
2024/04/13 04:22:42;;;;;;;;;;;;;;;4.39;100.00;99751.72;5341321;26;19980;-89
2024/04/13 04:25:08;;;;;;;;;;;;;;;4.41;100.00;99749.16;5335429;26;19945;-89
2024/04/13 04:27:34;;;;;;;;;;;;;;;4.33;100.00;99754.84;5393538;26;19929;-88
2024/04/13 04:29:59;;;;;;;;;;;;;;;4.35;100.00;99745.28;5309334;26;20246;-90
2024/04/13 04:32:24;;;;;;;;;;;;;;;4.34;100.00;99745.19;5344823;26;20255;-89
2024/04/13 04:34:50;;;;;;;;;;;;;;;4.31;100.00;99743.28;5316191;26;19941;-90
2024/04/13 04:37:15;;;;;;;;;;;;;;;4.32;100.00;99745.09;5399616;26;20313;-90
2024/04/13 04:39:40;;;;;;;;;;;;;;;4.30;100.00;99753.72;5402754;26;19937;-91
2024/04/13 04:42:06;;;;;;;;;;;;;;;4.29;100.00;99760.72;5371367;26;19937;-91
2024/04/13 04:44:32;;;;;;;;;;;;;;;4.22;100.00;99752.28;5312410;26;20778;-89
2024/04/13 04:46:57;;;;;;;;;;;;;;;4.21;100.00;99759.25;5343089;26;19998;-90
2024/04/13 04:49:22;;;;;;;;;;;;;;;4.41;100.00;99758.03;5345888;26;21942;-91
2024/04/13 04:51:48;;;;;;;;;;;;;;;4.34;100.00;99748.75;5372036;26;19969;-90
2024/04/13 04:54:13;;;;;;;;;;;;;;;4.41;100.00;99746.53;5342136;26;19937;-88
2024/04/13 04:56:38;;;;;;;;;;;;;;;4.46;100.00;99747.78;5350032;26;19937;-90
2024/04/13 04:59:04;;;;;;;;;;;;;;;4.55;100.00;99749.34;5369985;26;19937;-89
2024/04/13 05:01:29;;;;;;;;;;;;;;;4.64;100.00;99756.97;5338338;26;20049;-88
2024/04/13 05:03:55;;;;;;;;;;;;;;;4.64;100.00;99752.59;5370900;26;19950;-89
2024/04/13 05:06:21;;;;;;;;;;;;;;;4.79;100.00;99754.44;5345452;26;19936;-89
2024/04/13 05:08:47;;;;;;;;;;;;;;;4.95;100.00;99764.38;5340362;26;19937;-88
2024/04/13 05:11:12;;;;;;;;;;;;;;;5.11;100.00;99757.53;5305116;26;19981;-88
2024/04/13 05:13:40;;;;;;;;;;;;;;;5.06;100.00;99766.91;5367801;26;19941;-88
2024/04/13 05:16:08;;;;;;;;;;;;;;;5.04;100.00;99767.63;5319492;26;19937;-89
2024/04/13 05:18:34;;;;;;;;;;;;;;;4.99;100.00;99763.75;5394704;26;19936;-89
2024/04/13 05:21:00;;;;;;;;;;;;;;;5.17;100.00;99769.34;5372897;26;20065;-89
2024/04/13 05:23:25;;;;;;;;;;;;;;;5.11;100.00;99775.16;5374232;26;19929;-89
2024/04/13 05:25:51;;;;;;;;;;;;;;;5.11;100.00;99769.84;5368680;26;19930;-89
2024/04/13 05:28:16;;;;;;;;;;;;;;;5.10;100.00;99768.94;5317699;26;19942;-90
2024/04/13 05:30:55;;;;;;;;;;;;;;;5.09;100.00;99774.16;5351949;26;19940;-90
2024/04/13 05:33:20;;;;;;;;;;;;;;;5.18;100.00;99766.81;5393575;26;19929;-90
2024/04/13 05:35:47;;;;;;;;;;;;;;;5.13;100.00;99773.53;5369845;26;19929;-91
2024/04/13 05:38:12;;;;;;;;;;;;;;;5.14;100.00;99773.63;5336766;26;20000;-91
2024/04/13 05:40:38;;;;;;;;;;;;;;;5.19;100.00;99763.38;5344832;26;19934;-91
2024/04/13 05:43:04;;;;;;;;;;;;;;;5.30;100.00;99767.63;5369217;26;19938;-92
2024/04/13 05:45:29;;;;;;;;;;;;;;;5.56;100.00;99776.38;5339718;26;19961;-91
2024/04/13 05:47:55;;;;;;;;;;;;;;;5.81;100.00;99777.16;5338453;26;19965;-91
2024/04/13 05:50:20;;;;;;;;;;;;;;;6.11;99.73;99769.38;5348234;26;19938;-89
2024/04/13 05:52:50;;;;;;;;;;;;;;;6.30;99.13;99763.50;5327262;26;19937;-90
2024/04/13 05:55:17;;;;;;;;;;;;;;;6.60;97.74;99753.84;5350723;26;19937;-91
2024/04/13 05:57:42;;;;;;;;;;;;;;;6.87;98.09;99757.28;5335851;26;20355;-89
2024/04/13 06:00:09;;;;;;;;;;;;;;;7.16;96.81;99754.59;5369158;26;19929;-89
2024/04/13 06:02:34;;;;;;;;;;;;;;;7.35;95.84;99764.56;5343851;26;19944;-90
2024/04/13 06:05:00;;;;;;;;;;;;;;;7.64;95.26;99757.34;5342953;26;20266;-90
2024/04/13 06:07:25;;;;;;;;;;;;;;;7.82;92.83;99758.41;5365739;26;20681;-91
2024/04/13 06:09:50;;;;;;;;;;;;;;;8.20;93.42;99752.56;5368677;26;19938;-90
2024/04/13 06:12:16;;;;;;;;;;;;;;;8.47;91.79;99753.16;5334793;26;19941;-90
2024/04/13 06:14:41;;;;;;;;;;;;;;;8.81;91.81;99749.63;5340852;26;20289;-91
2024/04/13 06:17:07;;;;;;;;;;;;;;;9.22;89.44;99751.78;5375126;26;19938;-90
2024/04/13 06:19:32;;;;;;;;;;;;;;;9.43;89.41;99757.25;5354970;26;19929;-92
2024/04/13 06:21:58;;;;;;;;;;;;;;;9.48;88.52;99760.16;5374263;26;19939;-90
2024/04/13 06:24:24;;;;;;;;;;;;;;;9.73;84.48;99755.22;5375579;26;20713;-94
2024/04/13 06:26:49;;;;;;;;;;;;;;;10.33;83.26;99755.41;5338183;26;19936;-90
2024/04/13 06:29:14;;;;;;;;;;;;;;;10.72;80.93;99750.97;5374417;26;20365;-92
2024/04/13 06:31:40;;;;;;;;;;;;;;;10.80;79.74;99756.66;5369524;26;20358;-90
2024/04/13 06:34:07;;;;;;;;;;;;;;;11.15;78.71;99755.53;5373198;26;19929;-90
2024/04/13 06:36:32;;;;;;;;;;;;;;;11.35;78.51;99751.03;5344024;26;19965;-91
2024/04/13 06:38:58;;;;;;;;;;;;;;;11.79;78.33;99752.00;5338530;26;19994;-93
2024/04/13 06:41:24;;;;;;;;;;;;;;;12.25;77.99;99760.09;5342074;26;21260;-89
2024/04/13 06:43:49;;;;;;;;;;;;;;;12.66;76.37;99758.09;5310691;26;19969;-91
2024/04/13 06:46:15;;;;;;;;;;;;;;;13.05;74.19;99755.97;5343707;26;19941;-89
2024/04/13 06:48:40;;;;;;;;;;;;;;;13.60;72.43;99749.84;5317100;26;19933;-91
2024/04/13 06:51:06;;;;;;;;;;;;;;;13.58;71.92;99750.66;5338599;26;19930;-93
2024/04/13 06:53:31;;;;;;;;;;;;;;;13.97;71.21;99744.78;5395807;26;20255;-91
2024/04/13 06:55:56;;;;;;;;;;;;;;;14.44;69.79;99745.34;5392685;26;19930;-91
2024/04/13 06:58:23;;;;;;;;;;;;;;;14.41;69.47;99746.16;5332516;26;20275;-92
2024/04/13 07:00:55;;;;;;;;;;;;;;;14.67;68.54;99744.28;5333443;26;19937;-91
2024/04/13 07:03:21;;;;;;;;;;;;;;;15.01;67.26;99748.84;5391459;26;20061;-91
2024/04/13 07:05:53;;;;;;;;;;;;;;;15.58;65.17;99739.59;5399065;26;20024;-91
2024/04/13 07:08:19;;;;;;;;;;;;;;;16.00;63.15;99742.47;5400307;26;19980;-92
2024/04/13 07:10:45;;;;;;;;;;;;;;;16.16;61.65;99746.41;5340138;26;19937;-89
2024/04/13 07:13:11;;;;;;;;;;;;;;;16.63;59.70;99747.47;5398490;26;19941;-89
2024/04/13 07:15:36;;;;;;;;;;;;;;;16.73;58.00;99740.50;5371340;26;19936;-91
2024/04/13 07:18:02;;;;;;;;;;;;;;;16.66;57.90;99743.91;5342293;26;19942;-92
2024/04/13 07:20:27;;;;;;;;;;;;;;;17.02;56.26;99740.19;5348474;26;19941;-92
2024/04/13 07:22:52;;;;;;;;;;;;;;;17.79;53.44;99726.31;5310802;26;20415;-92
2024/04/13 07:25:18;;;;;;;;;;;;;;;18.15;52.60;99734.06;5330730;26;20918;-94
2024/04/13 07:27:43;;;;;;;;;;;;;;;18.33;51.05;99731.63;5350175;26;19937;-92
2024/04/13 07:30:09;;;;;;;;;;;;;;;18.56;51.09;99731.03;5323974;26;19980;-94
2024/04/13 07:32:35;;;;;;;;;;;;;;;18.91;49.41;99729.69;5341100;26;19936;-93
2024/04/13 07:35:00;;;;;;;;;;;;;;;19.20;48.19;99729.13;5309515;26;19944;-92
2024/04/13 07:37:25;;;;;;;;;;;;;;;19.15;47.46;99730.88;5361096;26;20441;-94
2024/04/13 07:39:51;;;;;;;;;;;;;;;19.62;45.70;99728.66;5400866;26;19944;-90
2024/04/13 07:42:16;;;;;;;;;;;;;;;19.38;45.80;99726.59;5395697;26;19937;-91
2024/04/13 07:44:41;;;;;;;;;;;;;;;19.56;45.62;99724.97;5377022;26;20357;-91
2024/04/13 07:47:07;;;;;;;;;;;;;;;19.77;44.95;99729.69;5386649;26;19933;-92
2024/04/13 07:49:32;;;;;;;;;;;;;;;19.94;44.85;99728.03;5358897;26;19936;-91
2024/04/13 07:52:00;;;;;;;;;;;;;;;19.33;46.61;99720.25;5351979;26;20375;-91
2024/04/13 07:54:26;;;;;;;;;;;;;;;19.39;47.22;99730.22;5342901;26;19938;-91
2024/04/13 07:56:52;;;;;;;;;;;;;;;19.32;47.19;99721.13;5319082;26;19977;-94
2024/04/13 07:59:19;;;;;;;;;;;;;;;20.02;45.59;99715.44;5352385;26;19941;-91
2024/04/13 08:01:44;;;;;;;;;;;;;;;20.34;45.07;99710.22;5402258;26;19945;-91
2024/04/13 08:04:09;;;;;;;;;;;;;;;19.91;44.51;99711.75;5352518;26;19940;-92
2024/04/13 08:06:36;;;;;;;;;;;;;;;20.80;42.84;99704.16;5395090;26;20695;-94
2024/04/13 08:09:03;;;;;;;;;;;;;;;20.79;43.50;99699.59;5315895;26;19930;-91
2024/04/13 08:11:28;;;;;;;;;;;;;;;21.17;42.31;99691.56;5323497;26;19929;-91
2024/04/13 08:13:53;;;;;;;;;;;;;;;21.77;41.13;99690.75;5322269;26;19930;-92
2024/04/13 08:16:19;;;;;;;;;;;;;;;21.91;40.68;99679.88;5355867;26;19938;-91
2024/04/13 08:18:44;;;;;;;;;;;;;;;21.45;41.49;99677.16;5353821;26;19936;-91
2024/04/13 08:21:09;;;;;;;;;;;;;;;22.27;40.15;99676.19;5378483;26;20639;-94
2024/04/13 08:23:35;;;;;;;;;;;;;;;22.25;40.42;99678.03;5377476;26;19930;-92
2024/04/13 08:26:01;;;;;;;;;;;;;;;22.03;40.26;99679.81;5374924;26;19933;-92
2024/04/13 08:28:26;;;;;;;;;;;;;;;21.90;41.49;99679.88;5320383;26;19929;-92
2024/04/13 08:30:52;;;;;;;;;;;;;;;22.57;40.04;99677.00;5352404;26;19974;-91
2024/04/13 08:33:17;;;;;;;;;;;;;;;23.07;38.52;99664.09;5346800;26;20337;-93
2024/04/13 08:35:43;;;;;;;;;;;;;;;22.28;39.69;99672.59;5383242;26;20587;-92
2024/04/13 08:38:08;;;;;;;;;;;;;;;22.93;40.08;99665.06;5398761;26;19941;-92
2024/04/13 08:40:33;;;;;;;;;;;;;;;23.77;38.20;99658.13;5380727;26;20271;-93
2024/04/13 08:43:02;;;;;;;;;;;;;;;23.43;38.28;99662.94;5373831;26;19956;-92
2024/04/13 08:45:27;;;;;;;;;;;;;;;22.73;39.30;99670.59;5374542;26;19934;-92
2024/04/13 08:47:54;;;;;;;;;;;;;;;23.93;36.98;99658.88;5350928;26;19934;-92
2024/04/13 08:50:20;;;;;;;;;;;;;;;24.30;36.11;99657.56;5344895;26;19940;-92
2024/04/13 08:52:45;;;;;;;;;;;;;;;23.57;38.34;99658.25;5353851;26;20275;-91
2024/04/13 08:55:11;;;;;;;;;;;;;;;23.86;39.09;99652.59;5348626;26;19930;-91
2024/04/13 08:57:37;;;;;;;;;;;;;;;24.12;38.08;99660.50;5349799;26;19936;-92
2024/04/13 09:00:03;;;;;;;;;;;;;;;24.25;37.48;99651.25;5329294;26;19936;-92
2024/04/13 09:02:35;;;;;;;;;;;;;;;24.27;37.63;99643.06;5348610;26;19940;-90
2024/04/13 09:05:03;;;;;;;;;;;;;;;24.05;37.52;99634.19;5326901;26;19976;-90
2024/04/13 09:07:46;;;;;;;;;;;;;;;24.43;37.64;99641.97;5345628;26;19929;-90
2024/04/13 09:10:12;;;;;;;;;;;;;;;24.68;36.28;99638.94;5356473;26;19958;-90
2024/04/13 09:12:37;;;;;;;;;;;;;;;24.51;36.43;99637.31;5408429;26;19930;-91
2024/04/13 09:15:04;;;;;;;;;;;;;;;25.26;35.40;99629.94;5402549;26;20275;-92
2024/04/13 09:17:33;;;;;;;;;;;;;;;25.06;35.41;99627.50;5351723;26;19941;-91
2024/04/13 09:20:06;;;;;;;;;;;;;;;25.34;34.75;99630.69;5366561;26;19998;-90
2024/04/13 09:22:32;;;;;;;;;;;;;;;25.31;35.39;99631.66;5343066;26;19929;-90
2024/04/13 09:24:57;;;;;;;;;;;;;;;25.74;33.98;99624.56;5346370;26;20263;-90
2024/04/13 09:27:29;;;;;;;;;;;;;;;25.94;33.79;99616.94;5397339;26;19930;-90
2024/04/13 09:30:08;;;;;;;;;;;;;;;25.81;33.68;99613.50;5338876;26;19929;-91
2024/04/13 09:32:33;;;;;;;;;;;;;;;26.31;32.71;99608.00;5339654;26;19937;-91
2024/04/13 09:35:09;;;;;;;;;;;;;;;26.34;33.12;99610.66;5359871;26;20022;-90
2024/04/13 09:37:34;;;;;;;;;;;;;;;26.83;32.83;99605.06;5390948;26;19936;-90
2024/04/13 09:40:00;;;;;;;;;;;;;;;27.10;31.60;99608.13;5337743;26;19937;-90
2024/04/13 09:42:27;;;;;;;;;;;;;;;27.11;31.89;99604.44;5344606;26;19945;-90
2024/04/13 09:44:52;;;;;;;;;;;;;;;27.09;31.33;99598.09;5344795;26;19930;-90
2024/04/13 09:47:17;;;;;;;;;;;;;;;26.67;31.90;99589.91;5376578;26;19936;-93
2024/04/13 09:49:48;;;;;;;;;;;;;;;25.81;33.23;99593.47;5322589;26;19941;-92
2024/04/13 09:52:13;;;;;;;;;;;;;;;26.95;31.98;99586.53;5377482;26;19940;-92
2024/04/13 09:54:41;;;;;;;;;;;;;;;27.10;31.22;99577.97;5344405;26;19930;-91
2024/04/13 09:57:07;;;;;;;;;;;;;;;27.27;31.11;99570.25;5406409;26;19940;-93
2024/04/13 09:59:33;;;;;;;;;;;;;;;27.92;30.70;99566.72;5300803;26;19938;-91
2024/04/13 10:01:58;;;;;;;;;;;;;;;28.47;29.51;99556.94;5343678;26;20352;-91
2024/04/13 10:04:23;;;;;;;;;;;;;;;28.59;29.34;99553.78;5324046;26;19945;-92
2024/04/13 10:06:50;;;;;;;;;;;;;;;27.78;30.64;99557.97;5304667;26;20264;-90
2024/04/13 10:09:18;;;;;;;;;;;;;;;28.27;29.70;99559.34;5332417;26;20466;-93
2024/04/13 10:11:44;;;;;;;;;;;;;;;28.83;28.85;99557.59;5368741;26;20605;-91
2024/04/13 10:14:12;;;;;;;;;;;;;;;29.51;27.83;99556.28;5338076;26;19985;-92
2024/04/13 10:16:42;;;;;;;;;;;;;;;28.92;29.36;99552.78;5283034;26;19936;-90
2024/04/13 10:19:11;;;;;;;;;;;;;;;29.06;29.06;99553.25;5373095;26;19942;-92
2024/04/13 10:21:37;;;;;;;;;;;;;;;29.27;29.66;99549.78;5318221;26;19942;-90
2024/04/13 10:24:02;;;;;;;;;;;;;;;29.01;30.15;99544.28;5310545;26;20253;-90
2024/04/13 10:26:29;;;;;;;;;;;;;;;28.56;30.86;99553.00;5291790;26;19977;-91
2024/04/13 10:28:58;;;;;;;;;;;;;;;28.19;30.96;99545.84;5348067;26;19930;-91
2024/04/13 10:31:25;;;;;;;;;;;;;;;28.79;30.99;99544.03;5305696;26;19942;-90
2024/04/13 10:33:52;;;;;;;;;;;;;;;29.48;29.28;99530.78;5317771;26;19930;-90
2024/04/13 10:36:25;;;;;;;;;;;;;;;29.77;28.61;99530.66;5318426;26;19935;-93
2024/04/13 10:38:55;;;;;;;;;;;;;;;28.69;30.60;99534.28;5328059;26;19934;-91
2024/04/13 10:41:31;;;;;;;;;;;;;;;29.11;29.31;99535.66;5318093;26;19934;-94
2024/04/13 10:43:57;;;;;;;;;;;;;;;28.00;30.13;99525.38;5370831;26;19930;-94
2024/04/13 10:46:24;;;;;;;;;;;;;;;28.12;30.49;99519.50;5358998;26;19954;-95
2024/04/13 10:48:49;;;;;;;;;;;;;;;28.49;29.76;99515.69;5312427;26;19931;-91
2024/04/13 10:51:15;;;;;;;;;;;;;;;28.55;29.97;99518.22;5312630;26;19926;-88
2024/04/13 10:53:42;;;;;;;;;;;;;;;28.77;29.75;99513.88;5376207;26;19922;-92
2024/04/13 10:56:08;;;;;;;;;;;;;;;29.72;28.73;99510.66;5342909;26;19943;-90
2024/04/13 10:58:35;;;;;;;;;;;;;;;28.50;30.26;99507.38;5361707;26;19922;-93
2024/04/13 11:01:01;;;;;;;;;;;;;;;29.32;29.72;99506.56;5292677;26;19931;-90
2024/04/13 11:03:29;;;;;;;;;;;;;;;29.30;29.50;99511.19;5367496;26;19937;-93
2024/04/13 11:05:55;;;;;;;;;;;;;;;30.25;27.91;99502.28;5360388;26;19962;-92
2024/04/13 11:08:27;;;;;;;;;;;;;;;29.31;29.57;99496.50;5340268;26;19930;-92
2024/04/13 11:10:55;;;;;;;;;;;;;;;30.19;27.48;99505.28;5351774;26;19933;-94
2024/04/13 11:13:24;;;;;;;;;;;;;;;30.72;27.15;99487.63;5330432;26;19937;-90
2024/04/13 11:15:53;;;;;;;;;;;;;;;31.30;26.11;99486.09;5342326;26;19922;-91
2024/04/13 11:18:20;;;;;;;;;;;;;;;32.28;24.97;99480.75;5335713;26;20404;-90
2024/04/13 11:20:53;;;;;;;;;;;;;;;31.27;26.37;99491.72;5325351;26;19936;-90
2024/04/13 11:23:22;;;;;;;;;;;;;;;31.59;25.25;99484.81;5362423;26;20512;-88
2024/04/13 11:25:47;;;;;;;;;;;;;;;30.87;26.36;99471.34;5362772;26;19932;-93
2024/04/13 11:28:13;;;;;;;;;;;;;;;31.44;25.86;99468.06;5329896;26;19929;-93
2024/04/13 11:30:41;;;;;;;;;;;;;;;32.41;26.61;99466.31;5350428;26;19929;-95
2024/04/13 11:33:08;;;;;;;;;;;;;;;31.44;26.00;99473.56;5352905;26;19922;-93
2024/04/13 11:35:33;;;;;;;;;;;;;;;31.67;25.76;99466.06;5351056;26;19984;-94
2024/04/13 11:38:04;;;;;;;;;;;;;;;30.13;27.79;99466.97;5332649;26;19945;-91
2024/04/13 11:40:39;;;;;;;;;;;;;;;31.45;26.33;99458.81;5314817;27;19937;-91
2024/04/13 11:43:10;;;;;;;;;;;;;;;32.29;25.16;99455.84;5292925;26;19934;-92
2024/04/13 11:45:35;;;;;;;;;;;;;;;32.88;23.63;99445.59;5349524;26;19929;-92
2024/04/13 11:48:01;;;;;;;;;;;;;;;32.58;23.49;99442.47;5267170;26;19937;-91
2024/04/13 11:50:29;;;;;;;;;;;;;;;28.29;28.59;99450.41;5362683;26;19976;-90
2024/04/13 11:52:59;;;;;;;;;;;;;;;29.75;28.25;99443.63;5344200;26;20011;-90
2024/04/13 11:55:24;;;;;;;;;;;;;;;30.88;27.66;99433.66;5381131;26;19937;-90
2024/04/13 11:57:51;;;;;;;;;;;;;;;31.56;26.55;99428.88;5333594;26;19955;-91
2024/04/13 12:00:22;;;;;;;;;;;;;;;31.76;25.48;99416.91;5345910;26;19955;-89
2024/04/13 12:02:50;;;;;;;;;;;;;;;31.66;24.96;99420.09;5322507;26;19938;-93
2024/04/13 12:05:15;;;;;;;;;;;;;;;31.75;25.42;99416.03;5347558;26;19930;-90
2024/04/13 12:07:45;;;;;;;;;;;;;;;32.10;24.62;99411.66;5354023;26;19937;-91
2024/04/13 12:10:12;;;;;;;;;;;;;;;32.62;23.82;99416.50;5371901;26;19937;-90
2024/04/13 12:12:38;;;;;;;;;;;;;;;32.82;24.00;99421.00;5343164;26;19956;-90
2024/04/13 12:15:04;;;;;;;;;;;;;;;31.66;24.99;99405.41;5321027;26;19930;-90
2024/04/13 12:17:29;;;;;;;;;;;;;;;32.29;24.52;99405.22;5349672;26;19930;-91
2024/04/13 12:19:55;;;;;;;;;;;;;;;30.91;25.49;99411.50;5311179;26;19930;-93
2024/04/13 12:22:20;;;;;;;;;;;;;;;33.79;23.75;99400.28;5293526;26;19930;-90
2024/04/13 12:24:47;;;;;;;;;;;;;;;32.78;23.49;99392.66;5352494;26;19930;-89
2024/04/13 12:27:13;;;;;;;;;;;;;;;33.06;22.88;99397.69;5373577;26;19980;-93
2024/04/13 12:29:39;;;;;;;;;;;;;;;32.02;23.98;99396.41;5341699;26;19942;-91
2024/04/13 12:32:06;;;;;;;;;;;;;;;30.75;26.19;99404.81;5342379;26;19930;-89
2024/04/13 12:34:32;;;;;;;;;;;;;;;31.50;24.66;99391.44;5319729;26;19930;-90
2024/04/13 12:36:58;;;;;;;;;;;;;;;34.19;22.27;99382.34;5338715;26;19936;-91
2024/04/13 12:39:24;;;;;;;;;;;;;;;34.11;22.69;99377.25;5381537;26;19941;-89
2024/04/13 12:41:50;;;;;;;;;;;;;;;33.94;21.24;99375.44;5284806;26;19930;-90
2024/04/13 12:44:16;;;;;;;;;;;;;;;34.25;20.96;99370.91;5335565;26;19955;-89